Time;durP1;ratioP1;P1;durP2;ratioP2;P2;SDS_P1;SDS_P2;PMS_P1;PMS_P2;Temp;Humidity;BMP_temperature;BMP_pressure;BME280_temperature;BME280_humidity;BME280_pressure;Samples;Min_cycle;Max_cycle;Signal;HPM_P1;HPM_P2
2022/01/11 00:01:29;;;;;;;0.20;0.20;;;;;;;18.94;41.13;102628.00;5109466;28;20058;-47
2022/01/11 00:03:55;;;;;;;0.30;0.30;;;;;;;18.93;41.03;102640.97;5127267;27;20142;-43
2022/01/11 00:06:31;;;;;;;0.20;0.20;;;;;;;18.94;40.95;102642.66;5126448;28;20478;-41
2022/01/11 00:09:01;;;;;;;0.20;0.20;;;;;;;18.94;41.10;102650.09;5129029;28;20082;-40
2022/01/11 00:11:27;;;;;;;0.20;0.20;;;;;;;18.94;41.05;102639.06;5130222;27;20103;-40
2022/01/11 00:13:53;;;;;;;0.20;0.20;;;;;;;18.93;41.12;102635.47;5128101;28;20548;-40
2022/01/11 00:16:19;;;;;;;0.20;0.20;;;;;;;18.95;41.08;102640.72;5128450;28;20133;-40
2022/01/11 00:18:45;;;;;;;0.20;0.20;;;;;;;18.92;41.03;102639.31;5125482;28;20054;-41
2022/01/11 00:21:11;;;;;;;0.20;0.20;;;;;;;18.94;41.10;102650.09;5129835;27;20043;-41
2022/01/11 00:26:17;;;;;;;0.20;0.20;;;;;;;18.93;41.20;102645.66;5177534;27;20201;-31
2022/01/11 00:28:42;;;;;;;0.20;0.20;;;;;;;18.93;41.09;102651.19;5163914;27;20042;-33
2022/01/11 00:31:09;;;;;;;0.20;0.20;;;;;;;18.91;41.14;102647.81;5164941;27;20058;-32
2022/01/11 00:33:39;;;;;;;0.20;0.20;;;;;;;18.91;41.25;102642.28;5165156;27;20042;-32
2022/01/11 00:36:07;;;;;;;0.20;0.20;;;;;;;18.90;41.07;102643.38;5165233;27;20038;-32
2022/01/11 00:38:35;;;;;;;0.10;0.10;;;;;;;18.91;41.18;102645.03;5147111;27;20053;-31
2022/01/11 00:41:02;;;;;;;;;;;;;;;18.91;41.03;102645.03;5146587;27;20053;-31
2022/01/11 00:43:29;;;;;;;0.20;0.20;;;;;;;18.91;41.15;102642.28;5164160;27;20445;-32
2022/01/11 00:45:56;;;;;;;0.20;0.20;;;;;;;18.91;41.10;102645.03;5165821;27;20042;-32
2022/01/11 00:48:22;;;;;;;0.20;0.20;;;;;;;18.91;41.12;102643.16;5146830;27;20079;-32
2022/01/11 00:50:48;;;;;;;0.20;0.20;;;;;;;18.90;41.07;102648.88;5166341;27;20103;-32
2022/01/11 00:53:14;;;;;;;0.20;0.20;;;;;;;18.90;41.24;102651.66;5160694;27;20446;-32
2022/01/11 00:55:40;;;;;;;0.20;0.20;;;;;;;18.90;41.19;102657.16;5166647;27;20472;-32
2022/01/11 00:58:06;;;;;;;0.20;0.20;;;;;;;18.90;41.05;102658.00;5163648;27;20205;-32
2022/01/11 01:00:34;;;;;;;0.20;0.20;;;;;;;18.90;40.95;102658.00;5163635;27;20056;-32
2022/01/11 01:03:00;;;;;;;0.20;0.20;;;;;;;18.90;41.50;102659.94;5143185;27;20388;-32
2022/01/11 01:05:26;;;;;;;0.20;0.20;;;;;;;18.89;41.02;102656.34;5165829;27;20042;-32
2022/01/11 01:07:52;;;;;;;0.20;0.20;;;;;;;18.88;40.99;102657.41;5146651;27;20043;-32
2022/01/11 01:10:26;;;;;;;0.20;0.20;;;;;;;18.90;40.97;102666.28;5147719;27;20047;-33
2022/01/11 01:12:54;;;;;;;0.20;0.20;;;;;;;18.90;41.14;102669.06;5163598;27;20057;-32
2022/01/11 01:15:21;;;;;;;0.30;0.30;;;;;;;18.89;41.00;102666.53;5165106;27;20166;-32
2022/01/11 01:17:46;;;;;;;0.20;0.20;;;;;;;18.89;41.09;102678.41;5147716;27;20412;-31
2022/01/11 01:20:13;;;;;;;0.20;0.20;;;;;;;18.89;41.26;102678.41;5146126;27;20038;-32
2022/01/11 01:22:38;;;;;;;0.20;0.20;;;;;;;18.89;41.24;102677.56;5162863;27;20038;-32
2022/01/11 01:25:05;;;;;;;0.20;0.20;;;;;;;18.89;41.27;102683.09;5147795;27;20637;-32
2022/01/11 01:27:30;;;;;;;0.20;0.20;;;;;;;18.88;41.23;102676.75;5165064;27;20058;-32
2022/01/11 01:29:56;;;;;;;0.30;0.30;;;;;;;18.89;41.27;102680.34;5163207;27;20043;-31
2022/01/11 01:32:23;;;;;;;0.30;0.30;;;;;;;18.88;41.16;102692.47;5164232;27;20381;-32
2022/01/11 01:34:51;;;;;;;0.30;0.30;;;;;;;18.88;41.08;102687.78;5163221;27;20431;-32
2022/01/11 01:37:16;;;;;;;0.20;0.20;;;;;;;18.88;41.21;102696.06;5153030;27;20188;-32
2022/01/11 01:39:43;;;;;;;0.30;0.30;;;;;;;18.89;41.10;102702.44;5151678;27;20380;-32
2022/01/11 01:42:11;;;;;;;0.30;0.30;;;;;;;18.88;41.30;102703.50;5150940;27;20186;-32
2022/01/11 01:44:37;;;;;;;;;;;;;;;18.88;41.04;102703.50;5132625;27;20043;-32
2022/01/11 01:47:03;;;;;;;0.30;0.30;;;;;;;18.86;41.25;102706.50;5150467;27;19962;-31
2022/01/11 01:49:31;;;;;;;0.30;0.30;;;;;;;18.86;41.07;102705.66;5151597;27;20429;-32
2022/01/11 01:51:56;;;;;;;0.20;0.20;;;;;;;18.87;41.21;102713.72;5149476;27;20043;-32
2022/01/11 01:54:23;;;;;;;0.30;0.30;;;;;;;18.86;41.08;102716.69;5148763;27;20043;-31
2022/01/11 01:56:49;;;;;;;0.20;0.20;;;;;;;18.87;41.28;102715.59;5151280;27;20045;-31
2022/01/11 01:59:15;;;;;;;0.20;0.20;;;;;;;18.88;41.28;102718.16;5149773;27;20039;-31
2022/01/11 02:01:46;;;;;;;0.30;0.30;;;;;;;18.87;41.11;102726.66;5147667;27;20532;-31
2022/01/11 02:04:13;;;;;;;0.28;0.28;;;;;;;18.87;41.17;102721.13;5148205;27;20108;-31
2022/01/11 02:06:38;;;;;;;0.20;0.20;;;;;;;18.86;41.11;102714.78;5130996;27;20098;-31
2022/01/11 02:09:04;;;;;;;0.30;0.30;;;;;;;18.87;41.24;102718.38;5132638;27;20149;-31
2022/01/11 02:11:31;;;;;;;0.20;0.20;;;;;;;18.87;41.29;102719.25;5150549;27;20435;-31
2022/01/11 02:13:57;;;;;;;0.20;0.20;;;;;;;18.87;41.21;102732.16;5129821;27;20077;-31
2022/01/11 02:16:23;;;;;;;0.20;0.20;;;;;;;18.86;41.19;102728.56;5150617;27;20400;-31
2022/01/11 02:18:50;;;;;;;0.20;0.20;;;;;;;18.87;41.16;102733.03;5118835;28;20517;-31
2022/01/11 02:21:16;;;;;;;0.20;0.20;;;;;;;18.87;41.05;102732.16;5126267;28;20043;-31
2022/01/11 02:23:42;;;;;;;0.25;0.25;;;;;;;18.86;41.25;102739.63;5089827;28;20049;-31
2022/01/11 02:26:08;;;;;;;0.20;0.20;;;;;;;18.86;41.12;102736.84;5109508;28;20099;-31
2022/01/11 02:28:34;;;;;;;0.20;0.20;;;;;;;18.86;41.29;102744.28;5128671;28;20074;-31
2022/01/11 02:31:01;;;;;;;0.30;0.30;;;;;;;18.85;41.25;102737.94;5105976;28;20425;-31
2022/01/11 02:33:32;;;;;;;0.20;0.20;;;;;;;18.86;41.07;102736.84;5092192;28;20050;-31
2022/01/11 02:36:00;;;;;;;0.20;0.20;;;;;;;18.85;41.25;102739.84;5109830;28;20043;-32
2022/01/11 02:38:25;;;;;;;0.30;0.30;;;;;;;18.84;41.17;102735.41;5128301;28;20158;-31
2022/01/11 02:40:51;;;;;;;0.30;0.30;;;;;;;18.85;41.06;102731.56;5128500;27;20461;-31
2022/01/11 02:43:16;;;;;;;0.20;0.20;;;;;;;18.85;41.03;102735.19;5124544;28;20051;-31
2022/01/11 02:45:42;;;;;;;0.20;0.20;;;;;;;18.85;41.28;102732.41;5127107;28;20498;-31
2022/01/11 02:48:09;;;;;;;0.20;0.20;;;;;;;18.86;41.10;102730.50;5108328;28;20493;-31
2022/01/11 02:50:34;;;;;;;0.20;0.20;;;;;;;18.85;41.10;102731.56;5124701;28;20043;-31
2022/01/11 02:53:00;;;;;;;0.20;0.20;;;;;;;18.83;41.23;102729.06;5122464;28;20074;-40
2022/01/11 02:55:26;;;;;;;0.20;0.20;;;;;;;18.85;41.14;102726.06;5110431;28;20042;-40
2022/01/11 02:57:52;;;;;;;0.30;0.30;;;;;;;18.85;41.31;102731.56;5127840;28;20494;-39
2022/01/11 03:00:20;;;;;;;0.20;0.20;;;;;;;18.84;41.18;102729.91;5122833;28;20391;-39
2022/01/11 03:02:46;;;;;;;;;;;;;;;18.85;41.30;102726.06;5119453;28;20442;-39
2022/01/11 03:05:13;;;;;;;0.20;0.20;;;;;;;18.84;41.27;102721.63;5126346;28;20468;-42
2022/01/11 03:07:40;;;;;;;0.20;0.20;;;;;;;18.85;41.19;102728.81;5126993;28;20035;-40
2022/01/11 03:10:23;;;;;;;0.30;0.30;;;;;;;18.85;41.28;102732.41;5125794;28;20457;-41
2022/01/11 03:12:49;;;;;;;0.30;0.30;;;;;;;18.84;41.20;102732.66;5110144;28;20039;-40
2022/01/11 03:15:15;;;;;;;0.22;0.22;;;;;;;18.83;41.08;102744.78;5127700;28;20082;-40
2022/01/11 03:17:41;;;;;;;0.20;0.20;;;;;;;18.84;41.26;102738.19;5123593;28;20039;-41
2022/01/11 03:20:08;;;;;;;0.20;0.20;;;;;;;18.85;41.16;102737.09;5126263;28;20371;-40
2022/01/11 03:22:34;;;;;;;0.20;0.20;;;;;;;18.82;41.16;102738.41;5100458;28;20043;-42
2022/01/11 03:24:59;;;;;;;0.20;0.20;;;;;;;18.82;41.10;102752.19;5126498;28;20043;-43
2022/01/11 03:27:25;;;;;;;0.20;0.20;;;;;;;18.83;41.27;102744.78;5128364;28;20280;-40
2022/01/11 03:29:51;;;;;;;0.20;0.20;;;;;;;18.84;41.19;102752.81;5128195;28;20043;-41
2022/01/11 03:32:19;;;;;;;0.20;0.20;;;;;;;18.84;41.35;102749.22;5125783;28;20458;-41
2022/01/11 03:35:04;;;;;;;0.20;0.20;;;;;;;18.83;41.29;102761.34;5124070;28;20043;-40
2022/01/11 03:37:29;;;;;;;0.20;0.20;;;;;;;18.83;41.19;102764.09;5107677;28;20075;-41
2022/01/11 03:39:55;;;;;;;0.20;0.20;;;;;;;18.84;41.37;102763.88;5127385;27;20374;-42
2022/01/11 03:42:20;;;;;;;0.20;0.20;;;;;;;18.83;41.30;102758.59;5127410;28;20039;-42
2022/01/11 03:44:46;;;;;;;0.20;0.20;;;;;;;18.82;41.21;102763.25;5125203;28;20046;-41
2022/01/11 03:47:12;;;;;;;0.20;0.20;;;;;;;18.82;41.21;102762.41;5120874;28;20474;-40
2022/01/11 03:49:37;;;;;;;0.20;0.20;;;;;;;18.82;41.27;102767.94;5105814;28;20118;-39
2022/01/11 03:52:04;;;;;;;0.20;0.20;;;;;;;18.83;41.18;102776.00;5125231;28;20530;-40
2022/01/11 03:54:43;;;;;;;0.20;0.20;;;;;;;18.82;41.38;102785.31;5124142;28;20119;-40
2022/01/11 03:57:09;;;;;;;0.20;0.20;;;;;;;18.83;41.14;102784.28;5126053;28;20051;-40
2022/01/11 03:59:34;;;;;;;0.20;0.20;;;;;;;18.82;41.24;102788.09;5108108;28;20088;-42
2022/01/11 04:02:00;;;;;;;0.20;0.20;;;;;;;18.82;41.07;102784.47;5126919;28;20100;-43
2022/01/11 04:04:26;;;;;;;0.20;0.20;;;;;;;18.80;41.08;102780.03;5124424;28;20042;-40
2022/01/11 04:06:52;;;;;;;0.20;0.20;;;;;;;18.84;41.20;102785.09;5125961;28;20078;-41
2022/01/11 04:09:19;;;;;;;0.20;0.20;;;;;;;18.81;41.16;102783.66;5125403;28;20035;-40
2022/01/11 04:11:45;;;;;;;0.20;0.20;;;;;;;18.82;41.04;102798.28;5109034;28;20390;-41
2022/01/11 04:14:10;;;;;;;0.22;0.22;;;;;;;18.83;41.25;102784.28;5105082;28;20497;-42
2022/01/11 04:16:36;;;;;;;0.20;0.20;;;;;;;18.82;41.40;102784.47;5120981;28;20035;-44
2022/01/11 04:19:02;;;;;;;0.20;0.20;;;;;;;18.82;41.10;102788.09;5109044;28;20043;-41
2022/01/11 04:21:28;;;;;;;0.20;0.20;;;;;;;18.82;41.04;102790.00;5126476;28;20126;-41
2022/01/11 04:23:54;;;;;;;0.20;0.20;;;;;;;18.80;41.23;102790.25;5125079;28;20115;-38
2022/01/11 04:26:20;;;;;;;0.30;0.30;;;;;;;18.82;41.20;102792.75;5125746;28;20051;-40
2022/01/11 04:28:45;;;;;;;0.20;0.20;;;;;;;18.82;41.31;102787.25;5108636;28;20096;-41
2022/01/11 04:31:11;;;;;;;0.20;0.20;;;;;;;18.82;41.13;102790.00;5127033;28;20421;-40
2022/01/11 04:33:43;;;;;;;0.20;0.20;;;;;;;18.80;41.32;102793.84;5124328;28;20096;-43
2022/01/11 04:36:09;;;;;;;0.20;0.20;;;;;;;18.80;41.29;102785.56;5106836;28;20047;-42
2022/01/11 04:38:35;;;;;;;0.20;0.20;;;;;;;18.80;41.21;102784.72;5128683;28;20047;-38
2022/01/11 04:41:01;;;;;;;0.20;0.20;;;;;;;18.81;41.31;102786.41;5089818;28;21162;-41
2022/01/11 04:43:26;;;;;;;0.20;0.20;;;;;;;18.80;41.39;102788.31;5108692;28;20473;-39
2022/01/11 04:45:52;;;;;;;0.20;0.20;;;;;;;18.80;41.16;102784.72;5125226;28;20397;-40
2022/01/11 04:48:18;;;;;;;0.20;0.20;;;;;;;18.80;41.14;102777.28;5126196;28;20061;-40
2022/01/11 04:50:45;;;;;;;0.20;0.20;;;;;;;18.80;41.35;102779.22;5125800;28;20074;-41
2022/01/11 04:53:11;;;;;;;0.30;0.30;;;;;;;18.82;41.04;102790.84;5121121;28;20452;-39
2022/01/11 04:55:37;;;;;;;0.28;0.28;;;;;;;18.82;41.08;102784.47;5106511;28;20043;-40
2022/01/11 04:58:03;;;;;;;0.30;0.30;;;;;;;18.80;41.31;102788.31;5102304;28;20039;-42
2022/01/11 05:00:28;;;;;;;0.20;0.20;;;;;;;18.79;41.43;102778.38;5123323;28;20058;-42
2022/01/11 05:02:57;;;;;;;0.20;0.20;;;;;;;18.79;41.26;102786.66;5123377;28;20070;-41
2022/01/11 05:05:24;;;;;;;0.25;0.25;;;;;;;18.79;41.25;102785.81;5124875;28;20088;-41
2022/01/11 05:07:50;;;;;;;0.20;0.20;;;;;;;18.79;41.07;102794.94;5126112;28;20050;-43
2022/01/11 05:10:16;;;;;;;0.20;0.20;;;;;;;18.80;41.12;102795.78;5109078;27;20054;-40
2022/01/11 05:12:42;;;;;;;0.20;0.20;;;;;;;18.78;41.32;102790.50;5127472;28;20051;-38
2022/01/11 05:15:09;;;;;;;0.20;0.20;;;;;;;18.79;41.26;102792.19;5128764;28;20062;-40
2022/01/11 05:17:36;;;;;;;0.20;0.20;;;;;;;18.79;41.34;102800.44;5130883;28;20101;-43
2022/01/11 05:20:03;;;;;;;0.30;0.30;;;;;;;18.80;41.15;102790.25;5130750;28;20039;-40
2022/01/11 05:22:28;;;;;;;0.20;0.20;;;;;;;18.78;41.05;102787.72;5129700;28;20103;-41
2022/01/11 05:24:54;;;;;;;0.20;0.20;;;;;;;18.79;41.12;102797.69;5124522;28;20047;-43
2022/01/11 05:27:20;;;;;;;0.20;0.20;;;;;;;18.79;41.22;102788.56;5129114;28;20055;-42
2022/01/11 05:29:45;;;;;;;0.20;0.20;;;;;;;18.78;41.16;102789.63;5126616;28;20180;-43
2022/01/11 05:32:11;;;;;;;0.20;0.20;;;;;;;18.79;41.09;102794.09;5124126;27;20443;-41
2022/01/11 05:34:37;;;;;;;0.20;0.20;;;;;;;18.79;41.34;102803.22;5129390;28;20097;-42
2022/01/11 05:37:03;;;;;;;0.30;0.30;;;;;;;18.79;41.21;102802.38;5128138;28;20039;-43
2022/01/11 05:39:29;;;;;;;0.20;0.20;;;;;;;18.78;41.19;102798.78;5130054;28;20416;-42
2022/01/11 05:41:55;;;;;;;0.20;0.20;;;;;;;18.79;41.39;102802.38;5131086;28;20461;-42
2022/01/11 05:44:21;;;;;;;0.20;0.20;;;;;;;18.79;41.18;102805.97;5107930;28;20096;-43
2022/01/11 05:46:47;;;;;;;0.30;0.30;;;;;;;18.79;41.18;102807.91;5128377;28;20043;-43
2022/01/11 05:49:12;;;;;;;0.20;0.20;;;;;;;18.78;41.19;102809.81;5129418;28;20055;-43
2022/01/11 05:51:38;;;;;;;0.20;0.20;;;;;;;18.78;41.10;102809.81;5125648;28;20039;-41
2022/01/11 05:54:03;;;;;;;0.20;0.20;;;;;;;18.78;41.22;102811.72;5126881;28;20051;-40
2022/01/11 05:56:29;;;;;;;0.20;0.20;;;;;;;18.79;41.08;102816.19;5107660;28;20038;-42
2022/01/11 05:58:55;;;;;;;0.22;0.22;;;;;;;18.78;41.06;102812.56;5128932;28;20100;-41
2022/01/11 06:01:23;;;;;;;0.20;0.20;;;;;;;18.79;41.00;102810.66;5124385;28;20047;-43
2022/01/11 06:03:49;;;;;;;;;;;;;;;18.79;41.07;102818.94;5124553;28;20055;-43
2022/01/11 06:06:15;;;;;;;0.20;0.20;;;;;;;18.77;41.17;102815.53;5124527;28;20021;-43
2022/01/11 06:08:40;;;;;;;0.22;0.22;;;;;;;18.76;41.13;102811.94;5110462;28;20585;-43
2022/01/11 06:11:07;;;;;;;0.30;0.30;;;;;;;18.77;41.10;102810.88;5110020;28;20043;-44
2022/01/11 06:13:33;;;;;;;0.20;0.20;;;;;;;18.78;41.24;102812.56;5127644;28;20047;-44
2022/01/11 06:15:58;;;;;;;0.20;0.20;;;;;;;18.78;41.09;102808.94;5106712;28;20043;-41
2022/01/11 06:18:24;;;;;;;0.25;0.25;;;;;;;18.76;41.24;102813.88;5126520;28;20610;-43
2022/01/11 06:20:50;;;;;;;0.20;0.20;;;;;;;18.77;41.24;102819.16;5127799;28;20066;-42
2022/01/11 06:23:16;;;;;;;0.25;0.25;;;;;;;18.77;41.07;102815.53;5121152;28;20072;-42
2022/01/11 06:25:41;;;;;;;0.20;0.20;;;;;;;18.77;41.17;102813.63;5127054;28;20043;-42
2022/01/11 06:28:07;;;;;;;0.20;0.20;;;;;;;18.78;40.97;102814.47;5121688;28;20517;-42
2022/01/11 06:30:33;;;;;;;0.20;0.20;;;;;;;18.77;41.06;102816.38;5123207;28;20480;-43
2022/01/11 06:32:58;;;;;;;0.20;0.20;;;;;;;18.76;41.02;102823.00;5103489;28;20188;-40
2022/01/11 06:35:25;;;;;;;0.20;0.20;;;;;;;18.77;41.09;102824.66;5126898;28;20088;-40
2022/01/11 06:37:51;;;;;;;0.20;0.20;;;;;;;18.77;41.25;102824.66;5100758;28;20043;-43
2022/01/11 06:40:19;;;;;;;0.30;0.30;;;;;;;18.86;41.26;102829.88;5108112;28;20043;-48
2022/01/11 06:42:46;;;;;;;0.30;0.30;;;;;;;18.95;41.37;102834.00;5119357;27;20494;-43
2022/01/11 06:45:12;;;;;;;0.30;0.30;;;;;;;18.95;41.03;102836.75;5103727;28;20078;-42
2022/01/11 06:47:38;;;;;;;0.30;0.30;;;;;;;18.92;41.35;102840.84;5106267;28;20043;-42
2022/01/11 06:50:05;;;;;;;0.20;0.20;;;;;;;18.90;41.40;102836.63;5122466;28;20092;-43
2022/01/11 06:52:30;;;;;;;0.30;0.30;;;;;;;18.99;41.39;102838.81;5099442;27;20051;-45
2022/01/11 06:54:56;;;;;;;0.20;0.20;;;;;;;19.02;41.44;102840.28;5104132;28;20338;-43
2022/01/11 06:57:22;;;;;;;0.30;0.30;;;;;;;19.01;41.58;102849.66;5122250;28;20043;-43
2022/01/11 06:59:47;;;;;;;0.20;0.20;;;;;;;18.99;41.43;102855.38;5117331;28;20044;-43
2022/01/11 07:02:13;;;;;;;0.20;0.20;;;;;;;18.99;41.44;102855.38;5121178;28;20530;-44
2022/01/11 07:04:39;;;;;;;0.30;0.30;;;;;;;18.98;41.28;102859.22;5098088;28;20050;-44
2022/01/11 07:07:07;;;;;;;0.20;0.20;;;;;;;18.98;41.47;102858.38;5116793;28;20066;-42
2022/01/11 07:09:33;;;;;;;0.20;0.20;;;;;;;18.99;41.36;102866.44;5096698;28;20454;-42
2022/01/11 07:11:58;;;;;;;0.30;0.30;;;;;;;19.00;41.38;102859.84;5122322;28;20051;-44
2022/01/11 07:14:24;;;;;;;0.20;0.20;;;;;;;19.00;41.11;102870.06;5113186;28;20043;-42
2022/01/11 07:16:50;;;;;;;0.20;0.20;;;;;;;19.02;41.34;102865.13;5116840;27;20046;-43
2022/01/11 07:19:17;;;;;;;0.20;0.20;;;;;;;19.02;41.25;102868.72;5119474;27;20047;-43
2022/01/11 07:21:44;;;;;;;0.20;0.20;;;;;;;19.03;41.13;102869.56;5114396;27;20070;-45
2022/01/11 07:24:11;;;;;;;0.30;0.30;;;;;;;19.04;41.07;102879.53;5078216;28;20039;-42
2022/01/11 07:26:37;;;;;;;0.20;0.20;;;;;;;19.05;40.97;102882.09;5081112;28;20112;-42
2022/01/11 07:29:05;;;;;;;0.20;0.20;;;;;;;19.06;41.23;102882.91;5094612;28;20570;-42
2022/01/11 07:31:32;;;;;;;0.20;0.20;;;;;;;19.07;40.82;102881.00;5118575;27;20047;-43
2022/01/11 07:33:58;;;;;;;0.20;0.20;;;;;;;19.08;41.05;102891.81;5076754;28;20104;-43
2022/01/11 07:36:24;;;;;;;0.20;0.20;;;;;;;19.08;40.83;102891.81;5115069;27;20043;-42
2022/01/11 07:38:51;;;;;;;0.30;0.30;;;;;;;19.10;41.08;102888.81;5096722;28;20138;-42
2022/01/11 07:41:17;;;;;;;0.20;0.20;;;;;;;19.10;41.01;102884.16;5099262;28;20064;-44
2022/01/11 07:43:43;;;;;;;0.30;0.30;;;;;;;19.12;40.94;102889.41;5112401;27;20053;-43
2022/01/11 07:46:09;;;;;;;0.22;0.22;;;;;;;19.12;40.93;102895.78;5096884;28;20047;-48
2022/01/11 07:48:35;;;;;;;0.20;0.20;;;;;;;19.14;40.83;102890.06;5117967;28;20050;-43
2022/01/11 07:51:01;;;;;;;0.20;0.20;;;;;;;19.14;40.82;102887.28;5115533;28;20085;-45
2022/01/11 07:53:26;;;;;;;0.20;0.20;;;;;;;19.15;40.93;102894.50;5113166;27;20055;-44
2022/01/11 07:55:52;;;;;;;0.20;0.20;;;;;;;19.16;40.78;102896.16;5114727;28;20066;-41
2022/01/11 07:58:18;;;;;;;0.20;0.20;;;;;;;19.17;40.71;102900.59;5112946;28;20567;-44
2022/01/11 08:00:43;;;;;;;0.20;0.20;;;;;;;19.16;40.90;102890.66;5114048;27;20047;-43
2022/01/11 08:03:10;;;;;;;0.20;0.20;;;;;;;19.17;40.62;102901.47;5105942;28;20054;-44
2022/01/11 08:05:36;;;;;;;0.30;0.30;;;;;;;19.17;40.82;102906.13;5091386;28;20095;-43
2022/01/11 08:08:02;;;;;;;0.20;0.20;;;;;;;19.18;40.94;102918.88;5104686;27;21361;-43
2022/01/11 08:10:28;;;;;;;0.30;0.30;;;;;;;19.16;40.87;102919.09;5104859;27;20143;-45
2022/01/11 08:12:54;;;;;;;0.28;0.28;;;;;;;19.12;39.73;102920.63;5094592;28;20051;-43
2022/01/11 08:15:21;;;;;;;0.20;0.20;;;;;;;18.99;36.53;102920.81;5111127;27;20058;-42
2022/01/11 08:17:47;;;;;;;0.20;0.20;;;;;;;19.14;38.18;102924.03;5086399;27;20047;-42
2022/01/11 08:20:13;;;;;;;0.20;0.20;;;;;;;19.21;38.30;102930.31;5114235;28;20047;-42
2022/01/11 08:22:39;;;;;;;0.30;0.30;;;;;;;19.23;38.67;102927.31;5108107;28;20049;-43
2022/01/11 08:25:05;;;;;;;0.30;0.30;;;;;;;19.25;38.56;102926.00;5110460;27;20123;-46
2022/01/11 08:27:33;;;;;;;0.28;0.28;;;;;;;19.28;38.93;102921.94;5087678;28;20046;-43
2022/01/11 08:30:00;;;;;;;0.20;0.20;;;;;;;19.29;38.93;102934.66;5097616;28;20047;-44
2022/01/11 08:32:25;;;;;;;0.30;0.30;;;;;;;19.30;39.02;102944.66;5112698;27;20046;-42
2022/01/11 08:34:51;;;;;;;0.30;0.30;;;;;;;19.31;38.99;102940.81;5113410;28;20047;-43
2022/01/11 08:37:17;;;;;;;0.30;0.30;;;;;;;19.33;39.27;102946.09;5113726;28;20072;-42
2022/01/11 08:39:43;;;;;;;0.20;0.20;;;;;;;19.33;39.32;102949.69;5112117;28;20073;-42
2022/01/11 08:42:13;;;;;;;0.30;0.30;;;;;;;19.34;39.24;102953.28;5095307;28;20478;-43
2022/01/11 08:44:42;;;;;;;0.20;0.20;;;;;;;19.35;39.38;102950.31;5117273;28;20047;-43
2022/01/11 08:47:08;;;;;;;0.20;0.20;;;;;;;19.36;39.26;102948.41;5095812;27;20437;-43
2022/01/11 08:49:34;;;;;;;0.20;0.20;;;;;;;19.35;39.34;102950.31;5101118;28;20040;-42
2022/01/11 08:52:00;;;;;;;0.20;0.20;;;;;;;19.37;39.33;102956.44;5100216;28;20039;-43
2022/01/11 08:54:26;;;;;;;0.20;0.20;;;;;;;19.36;39.08;102946.47;5115285;28;20104;-43
2022/01/11 08:56:55;;;;;;;0.30;0.30;;;;;;;19.37;39.28;102945.38;5114963;28;20497;-41
2022/01/11 08:59:22;;;;;;;0.20;0.20;;;;;;;19.37;39.39;102948.16;5098967;28;20547;-43
2022/01/11 09:01:48;;;;;;;0.20;0.20;;;;;;;19.38;39.18;102949.84;5094346;28;20132;-44
2022/01/11 09:04:14;;;;;;;0.20;0.20;;;;;;;19.38;39.28;102944.31;5116538;27;20075;-44
2022/01/11 09:06:40;;;;;;;0.20;0.20;;;;;;;19.40;39.54;102946.84;5097121;28;21420;-44
2022/01/11 09:09:16;;;;;;;0.20;0.20;;;;;;;19.41;39.27;102945.78;5113340;28;20130;-44
2022/01/11 09:11:42;;;;;;;0.30;0.30;;;;;;;19.41;39.50;102954.91;5098361;28;20075;-43
2022/01/11 09:14:09;;;;;;;0.20;0.20;;;;;;;19.42;39.47;102950.22;5095694;28;20075;-46
2022/01/11 09:16:34;;;;;;;0.30;0.30;;;;;;;19.42;39.60;102953.81;5109161;28;20058;-43
2022/01/11 09:19:00;;;;;;;0.30;0.30;;;;;;;19.43;39.64;102954.66;5117322;27;20158;-42
2022/01/11 09:21:26;;;;;;;0.20;0.20;;;;;;;19.34;37.86;102956.91;5111977;27;20671;-43
2022/01/11 09:23:52;;;;;;;0.30;0.30;;;;;;;19.45;38.51;102958.88;5094889;27;20035;-44
2022/01/11 09:26:18;;;;;;;0.30;0.30;;;;;;;19.47;38.76;102965.03;5099065;28;20043;-44
2022/01/11 09:28:44;;;;;;;0.20;0.20;;;;;;;19.47;38.48;102956.75;5100261;28;20035;-43
2022/01/11 09:31:10;;;;;;;0.20;0.20;;;;;;;19.48;38.69;102969.47;5098123;27;20188;-45
2022/01/11 09:33:36;;;;;;;0.20;0.20;;;;;;;19.48;38.99;102965.88;5117682;27;20126;-45
2022/01/11 09:36:02;;;;;;;0.20;0.20;;;;;;;19.48;39.13;102965.88;5091968;28;20229;-44
2022/01/11 09:38:28;;;;;;;0.20;0.20;;;;;;;19.49;38.96;102967.56;5102135;27;20739;-43
2022/01/11 09:40:56;;;;;;;0.20;0.20;;;;;;;19.49;38.83;102971.16;5094405;27;20043;-45
2022/01/11 09:43:23;;;;;;;0.30;0.30;;;;;;;19.50;38.78;102964.53;5094234;28;20047;-47
2022/01/11 09:45:50;;;;;;;0.30;0.30;;;;;;;19.51;39.14;102962.63;5099314;28;20403;-42
2022/01/11 09:48:19;;;;;;;0.20;0.20;;;;;;;19.51;38.87;102960.69;5116093;27;20079;-45
2022/01/11 09:50:45;;;;;;;0.30;0.30;;;;;;;19.45;37.63;102956.13;5098424;27;20082;-47
2022/01/11 09:53:10;;;;;;;0.20;0.20;;;;;;;19.50;38.36;102959.03;5107033;27;20511;-47
2022/01/11 09:55:36;;;;;;;0.20;0.20;;;;;;;19.52;38.35;102967.09;5116867;27;20461;-46
2022/01/11 09:58:04;;;;;;;0.20;0.20;;;;;;;19.54;37.70;102964.94;5113537;27;20470;-42
2022/01/11 10:00:29;;;;;;;0.20;0.20;;;;;;;19.58;38.24;102963.38;5093421;27;20062;-43
2022/01/11 10:02:55;;;;;;;0.30;0.30;;;;;;;19.59;38.25;102962.31;5094826;28;20039;-42
2022/01/11 10:05:23;;;;;;;0.20;0.20;;;;;;;19.59;38.21;102959.53;5115769;27;20043;-43
2022/01/11 10:07:48;;;;;;;0.20;0.20;;;;;;;19.59;38.47;102962.31;5112457;27;20458;-43
2022/01/11 10:10:18;;;;;;;0.20;0.20;;;;;;;19.60;38.53;102958.44;5116420;27;20543;-43
2022/01/11 10:12:48;;;;;;;0.20;0.20;;;;;;;19.61;38.71;102954.66;5112261;27;20096;-44
2022/01/11 10:15:15;;;;;;;0.20;0.20;;;;;;;19.62;38.66;102955.50;5112935;28;20122;-43
2022/01/11 10:17:43;;;;;;;0.20;0.20;;;;;;;19.62;38.72;102955.50;5094586;27;20047;-42
2022/01/11 10:23:05;;;;;;;0.20;0.20;;;;;;;19.63;38.80;102955.25;5109354;27;20125;-32
2022/01/11 10:25:43;;;;;;;0.20;0.20;;;;;;;19.64;38.61;102959.69;5077778;28;20096;-33
2022/01/11 10:28:09;;;;;;;0.20;0.20;;;;;;;19.64;38.70;102962.47;5076069;28;20047;-32
2022/01/11 10:30:35;;;;;;;0.20;0.20;;;;;;;19.65;38.64;102963.34;5092537;28;20246;-32
2022/01/11 10:33:06;;;;;;;0.20;0.20;;;;;;;19.65;38.56;102969.69;5075013;28;20484;-33
2022/01/11 10:35:42;;;;;;;0.20;0.20;;;;;;;19.66;38.67;102968.63;5072024;28;20059;-33
2022/01/11 10:38:14;;;;;;;0.20;0.20;;;;;;;19.66;38.59;102965.84;5061634;28;20056;-32
2022/01/11 10:40:44;;;;;;;0.10;0.10;;;;;;;19.67;38.34;102967.53;5087420;28;20256;-33
2022/01/11 10:43:12;;;;;;;0.20;0.20;;;;;;;19.69;38.08;102961.75;5064285;28;20368;-32
2022/01/11 10:45:39;;;;;;;;;;;;;;;19.72;38.41;102962.13;5082674;28;20058;-32
2022/01/11 10:48:10;;;;;;;0.20;0.20;;;;;;;19.72;38.39;102962.13;5085880;28;19928;-33
2022/01/11 10:50:38;;;;;;;0.20;0.20;;;;;;;19.71;38.33;102967.91;5090153;28;20035;-32
2022/01/11 10:53:15;;;;;;;0.20;0.20;;;;;;;19.72;38.39;102972.34;5065167;28;20433;-32
2022/01/11 10:55:43;;;;;;;0.20;0.20;;;;;;;19.59;36.15;102969.75;5087058;28;20495;-42
2022/01/11 10:58:32;;;;;;;0.20;0.20;;;;;;;19.68;36.81;102960.91;5064069;28;20097;-41
2022/01/11 11:00:58;;;;;;;0.20;0.20;;;;;;;19.72;36.96;102969.59;5093503;28;20079;-42
2022/01/11 11:03:28;;;;;;;0.20;0.20;;;;;;;19.73;37.27;102974.03;5092099;28;20050;-45
2022/01/11 11:05:56;;;;;;;0.20;0.20;;;;;;;19.53;34.22;102979.84;5075694;28;20093;-41
2022/01/11 11:08:31;;;;;;;0.20;0.20;;;;;;;19.71;36.55;102974.28;5072489;28;20051;-42
2022/01/11 11:13:36;;;;;;;0.20;0.20;;;;;;;19.75;36.70;102975.50;5151285;27;20111;-33
2022/01/11 11:16:21;;;;;;;0.20;0.20;;;;;;;19.64;33.59;102990.09;5148222;27;20047;-47
2022/01/11 11:18:48;;;;;;;0.20;0.20;;;;;;;19.77;35.20;102976.13;5144632;27;21177;-42
2022/01/11 11:21:27;;;;;;;0.13;0.13;;;;;;;19.82;35.23;102977.31;5153481;27;20039;-42
2022/01/11 11:23:56;;;;;;;0.20;0.20;;;;;;;19.83;35.73;102977.09;5152653;27;20491;-44
2022/01/11 11:26:23;;;;;;;0.20;0.20;;;;;;;19.84;36.09;102975.16;5127576;27;20053;-45
2022/01/11 11:28:49;;;;;;;0.20;0.20;;;;;;;19.85;36.30;102982.38;5145280;27;20062;-43
2022/01/11 11:31:16;;;;;;;0.20;0.20;;;;;;;19.86;36.07;102979.41;5116605;27;20125;-42
2022/01/11 11:33:42;;;;;;;0.20;0.20;;;;;;;19.86;36.44;102973.00;5126448;27;20043;-43